sensor_id;sensor_type;location;lat;lon;timestamp;P1;durP1;ratioP1;P2;durP2;ratioP2
7563;SDS011;3823;53.586;10.040;2024-03-08T00:00:40;22.20;;;12.82;;
7563;SDS011;3823;53.586;10.040;2024-03-08T00:03:07;25.42;;;14.60;;
7563;SDS011;3823;53.586;10.040;2024-03-08T00:05:35;26.17;;;13.13;;
7563;SDS011;3823;53.586;10.040;2024-03-08T00:08:04;28.55;;;14.88;;
7563;SDS011;3823;53.586;10.040;2024-03-08T00:10:31;26.65;;;14.35;;
7563;SDS011;3823;53.586;10.040;2024-03-08T00:12:57;20.23;;;13.90;;
7563;SDS011;3823;53.586;10.040;2024-03-08T00:15:22;27.58;;;14.75;;
7563;SDS011;3823;53.586;10.040;2024-03-08T00:17:48;23.10;;;14.90;;
7563;SDS011;3823;53.586;10.040;2024-03-08T00:20:14;22.85;;;14.10;;
7563;SDS011;3823;53.586;10.040;2024-03-08T00:22:42;27.25;;;15.20;;
7563;SDS011;3823;53.586;10.040;2024-03-08T00:25:08;25.75;;;15.43;;
7563;SDS011;3823;53.586;10.040;2024-03-08T00:27:34;24.77;;;13.95;;
7563;SDS011;3823;53.586;10.040;2024-03-08T00:30:01;22.10;;;13.90;;
7563;SDS011;3823;53.586;10.040;2024-03-08T00:32:26;30.85;;;16.50;;
7563;SDS011;3823;53.586;10.040;2024-03-08T00:34:52;22.27;;;13.88;;
7563;SDS011;3823;53.586;10.040;2024-03-08T00:37:19;25.00;;;14.00;;
7563;SDS011;3823;53.586;10.040;2024-03-08T00:39:47;28.27;;;13.88;;
7563;SDS011;3823;53.586;10.040;2024-03-08T00:42:16;25.92;;;15.52;;
7563;SDS011;3823;53.586;10.040;2024-03-08T00:44:42;26.45;;;14.85;;
7563;SDS011;3823;53.586;10.040;2024-03-08T00:47:07;26.42;;;14.63;;
7563;SDS011;3823;53.586;10.040;2024-03-08T00:49:33;26.83;;;13.55;;
7563;SDS011;3823;53.586;10.040;2024-03-08T00:51:58;27.63;;;13.13;;
7563;SDS011;3823;53.586;10.040;2024-03-08T00:54:24;24.25;;;12.75;;
7563;SDS011;3823;53.586;10.040;2024-03-08T00:56:50;28.27;;;15.35;;
7563;SDS011;3823;53.586;10.040;2024-03-08T00:59:15;24.95;;;14.55;;
7563;SDS011;3823;53.586;10.040;2024-03-08T01:01:41;23.95;;;12.93;;
7563;SDS011;3823;53.586;10.040;2024-03-08T01:04:07;24.60;;;14.07;;
7563;SDS011;3823;53.586;10.040;2024-03-08T01:06:33;27.73;;;14.63;;
7563;SDS011;3823;53.586;10.040;2024-03-08T01:08:59;23.35;;;14.00;;
7563;SDS011;3823;53.586;10.040;2024-03-08T01:11:24;25.20;;;12.50;;
7563;SDS011;3823;53.586;10.040;2024-03-08T01:13:50;30.63;;;15.77;;
7563;SDS011;3823;53.586;10.040;2024-03-08T01:16:16;28.23;;;14.18;;
7563;SDS011;3823;53.586;10.040;2024-03-08T01:18:46;23.27;;;13.68;;
7563;SDS011;3823;53.586;10.040;2024-03-08T01:21:12;24.67;;;14.18;;
7563;SDS011;3823;53.586;10.040;2024-03-08T01:23:37;28.10;;;15.73;;
7563;SDS011;3823;53.586;10.040;2024-03-08T01:26:03;22.65;;;12.88;;
7563;SDS011;3823;53.586;10.040;2024-03-08T01:28:29;29.00;;;14.20;;
7563;SDS011;3823;53.586;10.040;2024-03-08T01:30:55;28.90;;;15.43;;
7563;SDS011;3823;53.586;10.040;2024-03-08T01:33:24;31.45;;;15.85;;
7563;SDS011;3823;53.586;10.040;2024-03-08T01:35:51;25.42;;;12.48;;
7563;SDS011;3823;53.586;10.040;2024-03-08T01:38:17;25.58;;;14.43;;
7563;SDS011;3823;53.586;10.040;2024-03-08T01:40:43;36.53;;;16.33;;
7563;SDS011;3823;53.586;10.040;2024-03-08T01:43:21;27.10;;;14.75;;
7563;SDS011;3823;53.586;10.040;2024-03-08T01:45:50;25.42;;;13.60;;
7563;SDS011;3823;53.586;10.040;2024-03-08T01:48:16;30.05;;;16.08;;
7563;SDS011;3823;53.586;10.040;2024-03-08T01:50:44;30.08;;;14.32;;
7563;SDS011;3823;53.586;10.040;2024-03-08T01:53:10;22.75;;;13.68;;
7563;SDS011;3823;53.586;10.040;2024-03-08T01:55:40;29.02;;;14.82;;
7563;SDS011;3823;53.586;10.040;2024-03-08T01:58:06;24.45;;;14.45;;
7563;SDS011;3823;53.586;10.040;2024-03-08T02:00:34;28.02;;;15.15;;
7563;SDS011;3823;53.586;10.040;2024-03-08T02:03:01;29.48;;;15.75;;
7563;SDS011;3823;53.586;10.040;2024-03-08T02:05:27;31.75;;;18.13;;
7563;SDS011;3823;53.586;10.040;2024-03-08T02:07:53;25.65;;;14.23;;
7563;SDS011;3823;53.586;10.040;2024-03-08T02:10:19;29.17;;;14.13;;
7563;SDS011;3823;53.586;10.040;2024-03-08T02:12:47;33.15;;;15.65;;
7563;SDS011;3823;53.586;10.040;2024-03-08T02:15:13;30.23;;;15.25;;
7563;SDS011;3823;53.586;10.040;2024-03-08T02:17:40;27.73;;;14.98;;
7563;SDS011;3823;53.586;10.040;2024-03-08T02:20:05;26.38;;;14.60;;
7563;SDS011;3823;53.586;10.040;2024-03-08T02:22:33;24.10;;;15.50;;
7563;SDS011;3823;53.586;10.040;2024-03-08T02:24:59;27.65;;;15.00;;
7563;SDS011;3823;53.586;10.040;2024-03-08T02:27:27;30.08;;;14.88;;
7563;SDS011;3823;53.586;10.040;2024-03-08T02:29:55;28.20;;;15.55;;
7563;SDS011;3823;53.586;10.040;2024-03-08T02:32:24;20.58;;;14.13;;
7563;SDS011;3823;53.586;10.040;2024-03-08T02:34:50;23.45;;;14.15;;
7563;SDS011;3823;53.586;10.040;2024-03-08T02:37:16;22.25;;;12.18;;
7563;SDS011;3823;53.586;10.040;2024-03-08T02:39:42;25.60;;;13.82;;
7563;SDS011;3823;53.586;10.040;2024-03-08T02:42:08;22.95;;;13.27;;
7563;SDS011;3823;53.586;10.040;2024-03-08T02:44:34;29.30;;;14.27;;
7563;SDS011;3823;53.586;10.040;2024-03-08T02:46:59;24.77;;;14.63;;
7563;SDS011;3823;53.586;10.040;2024-03-08T02:49:25;26.08;;;14.63;;
7563;SDS011;3823;53.586;10.040;2024-03-08T02:51:52;24.40;;;14.00;;
7563;SDS011;3823;53.586;10.040;2024-03-08T02:54:18;29.27;;;14.32;;
7563;SDS011;3823;53.586;10.040;2024-03-08T02:56:44;27.95;;;15.25;;
7563;SDS011;3823;53.586;10.040;2024-03-08T02:59:11;28.00;;;15.02;;
7563;SDS011;3823;53.586;10.040;2024-03-08T03:01:42;32.25;;;14.65;;
7563;SDS011;3823;53.586;10.040;2024-03-08T03:04:08;25.50;;;13.55;;
7563;SDS011;3823;53.586;10.040;2024-03-08T03:06:34;28.08;;;15.43;;
7563;SDS011;3823;53.586;10.040;2024-03-08T03:09:00;23.88;;;14.10;;
7563;SDS011;3823;53.586;10.040;2024-03-08T03:11:26;29.33;;;15.43;;
7563;SDS011;3823;53.586;10.040;2024-03-08T03:13:52;35.28;;;15.30;;
7563;SDS011;3823;53.586;10.040;2024-03-08T03:16:20;24.77;;;13.55;;
7563;SDS011;3823;53.586;10.040;2024-03-08T03:18:46;25.33;;;13.35;;
7563;SDS011;3823;53.586;10.040;2024-03-08T03:21:12;21.92;;;13.15;;
7563;SDS011;3823;53.586;10.040;2024-03-08T03:23:39;30.88;;;14.95;;
7563;SDS011;3823;53.586;10.040;2024-03-08T03:26:05;25.80;;;14.15;;
7563;SDS011;3823;53.586;10.040;2024-03-08T03:28:32;25.85;;;13.65;;
7563;SDS011;3823;53.586;10.040;2024-03-08T03:30:58;23.42;;;14.60;;
7563;SDS011;3823;53.586;10.040;2024-03-08T03:33:24;29.52;;;14.50;;
7563;SDS011;3823;53.586;10.040;2024-03-08T03:35:50;26.65;;;15.50;;
7563;SDS011;3823;53.586;10.040;2024-03-08T03:38:17;26.83;;;14.02;;
7563;SDS011;3823;53.586;10.040;2024-03-08T03:40:44;27.55;;;14.25;;
7563;SDS011;3823;53.586;10.040;2024-03-08T03:43:11;26.60;;;15.93;;
7563;SDS011;3823;53.586;10.040;2024-03-08T03:45:37;29.52;;;15.05;;
7563;SDS011;3823;53.586;10.040;2024-03-08T03:48:04;29.27;;;14.30;;
7563;SDS011;3823;53.586;10.040;2024-03-08T03:50:34;30.77;;;15.43;;
7563;SDS011;3823;53.586;10.040;2024-03-08T03:53:00;31.50;;;15.35;;
7563;SDS011;3823;53.586;10.040;2024-03-08T03:55:26;34.55;;;15.98;;
7563;SDS011;3823;53.586;10.040;2024-03-08T03:57:52;28.60;;;15.60;;
7563;SDS011;3823;53.586;10.040;2024-03-08T04:00:18;29.52;;;15.05;;
7563;SDS011;3823;53.586;10.040;2024-03-08T04:02:43;35.72;;;16.38;;
7563;SDS011;3823;53.586;10.040;2024-03-08T04:05:10;32.72;;;14.82;;
7563;SDS011;3823;53.586;10.040;2024-03-08T04:07:37;28.10;;;15.65;;
7563;SDS011;3823;53.586;10.040;2024-03-08T04:10:03;30.95;;;15.20;;
7563;SDS011;3823;53.586;10.040;2024-03-08T04:12:31;28.08;;;15.18;;
7563;SDS011;3823;53.586;10.040;2024-03-08T04:14:57;27.70;;;14.73;;
7563;SDS011;3823;53.586;10.040;2024-03-08T04:17:23;29.05;;;14.55;;
7563;SDS011;3823;53.586;10.040;2024-03-08T04:19:51;29.85;;;15.52;;
7563;SDS011;3823;53.586;10.040;2024-03-08T04:22:17;29.13;;;15.38;;
7563;SDS011;3823;53.586;10.040;2024-03-08T04:24:46;38.40;;;17.58;;
7563;SDS011;3823;53.586;10.040;2024-03-08T04:27:12;32.20;;;16.42;;
7563;SDS011;3823;53.586;10.040;2024-03-08T04:29:39;32.60;;;15.45;;
7563;SDS011;3823;53.586;10.040;2024-03-08T04:32:05;30.08;;;16.33;;
7563;SDS011;3823;53.586;10.040;2024-03-08T04:34:32;24.48;;;14.20;;
7563;SDS011;3823;53.586;10.040;2024-03-08T04:36:59;25.15;;;15.77;;
7563;SDS011;3823;53.586;10.040;2024-03-08T04:39:25;31.15;;;16.23;;
7563;SDS011;3823;53.586;10.040;2024-03-08T04:41:55;30.15;;;14.80;;
7563;SDS011;3823;53.586;10.040;2024-03-08T04:44:23;28.33;;;14.73;;
7563;SDS011;3823;53.586;10.040;2024-03-08T04:46:51;33.85;;;16.58;;
7563;SDS011;3823;53.586;10.040;2024-03-08T04:49:17;37.72;;;16.25;;
7563;SDS011;3823;53.586;10.040;2024-03-08T04:51:43;30.63;;;15.50;;
7563;SDS011;3823;53.586;10.040;2024-03-08T04:54:09;32.58;;;16.17;;
7563;SDS011;3823;53.586;10.040;2024-03-08T04:56:35;31.80;;;14.70;;
7563;SDS011;3823;53.586;10.040;2024-03-08T04:59:01;25.75;;;15.30;;
7563;SDS011;3823;53.586;10.040;2024-03-08T05:01:26;36.00;;;17.65;;
7563;SDS011;3823;53.586;10.040;2024-03-08T05:03:52;27.75;;;16.40;;
7563;SDS011;3823;53.586;10.040;2024-03-08T05:06:20;31.55;;;16.63;;
7563;SDS011;3823;53.586;10.040;2024-03-08T05:08:46;33.67;;;16.38;;
7563;SDS011;3823;53.586;10.040;2024-03-08T05:11:11;38.53;;;15.27;;
7563;SDS011;3823;53.586;10.040;2024-03-08T05:13:39;38.78;;;17.08;;
7563;SDS011;3823;53.586;10.040;2024-03-08T05:16:05;34.03;;;16.65;;
7563;SDS011;3823;53.586;10.040;2024-03-08T05:18:32;32.60;;;16.95;;
7563;SDS011;3823;53.586;10.040;2024-03-08T05:20:58;34.92;;;16.27;;
7563;SDS011;3823;53.586;10.040;2024-03-08T05:23:24;35.45;;;17.60;;
7563;SDS011;3823;53.586;10.040;2024-03-08T05:25:49;32.80;;;16.13;;
7563;SDS011;3823;53.586;10.040;2024-03-08T05:28:15;28.15;;;15.70;;
7563;SDS011;3823;53.586;10.040;2024-03-08T05:30:41;39.78;;;17.08;;
7563;SDS011;3823;53.586;10.040;2024-03-08T05:33:06;35.70;;;16.35;;
7563;SDS011;3823;53.586;10.040;2024-03-08T05:35:35;35.60;;;16.50;;
7563;SDS011;3823;53.586;10.040;2024-03-08T05:38:01;44.10;;;16.58;;
7563;SDS011;3823;53.586;10.040;2024-03-08T05:40:27;33.45;;;15.50;;
7563;SDS011;3823;53.586;10.040;2024-03-08T05:42:57;30.02;;;15.23;;
7563;SDS011;3823;53.586;10.040;2024-03-08T05:45:23;28.33;;;14.52;;
7563;SDS011;3823;53.586;10.040;2024-03-08T05:47:50;31.92;;;16.30;;
7563;SDS011;3823;53.586;10.040;2024-03-08T05:50:17;30.63;;;16.05;;
7563;SDS011;3823;53.586;10.040;2024-03-08T05:52:43;32.53;;;15.93;;
7563;SDS011;3823;53.586;10.040;2024-03-08T05:55:09;29.80;;;15.02;;
7563;SDS011;3823;53.586;10.040;2024-03-08T05:57:35;31.25;;;16.15;;
7563;SDS011;3823;53.586;10.040;2024-03-08T06:00:04;29.42;;;15.48;;
7563;SDS011;3823;53.586;10.040;2024-03-08T06:02:30;39.88;;;16.88;;
7563;SDS011;3823;53.586;10.040;2024-03-08T06:04:56;34.10;;;14.98;;
7563;SDS011;3823;53.586;10.040;2024-03-08T06:07:22;29.45;;;14.70;;
7563;SDS011;3823;53.586;10.040;2024-03-08T06:09:47;37.38;;;16.98;;
7563;SDS011;3823;53.586;10.040;2024-03-08T06:12:14;38.90;;;17.37;;
7563;SDS011;3823;53.586;10.040;2024-03-08T06:14:44;36.72;;;16.60;;
7563;SDS011;3823;53.586;10.040;2024-03-08T06:17:10;36.58;;;16.77;;
7563;SDS011;3823;53.586;10.040;2024-03-08T06:19:36;33.03;;;16.38;;
7563;SDS011;3823;53.586;10.040;2024-03-08T06:22:02;37.65;;;18.45;;
7563;SDS011;3823;53.586;10.040;2024-03-08T06:24:33;30.45;;;16.15;;
7563;SDS011;3823;53.586;10.040;2024-03-08T06:27:01;33.95;;;17.17;;
7563;SDS011;3823;53.586;10.040;2024-03-08T06:29:27;26.80;;;14.68;;
7563;SDS011;3823;53.586;10.040;2024-03-08T06:31:52;29.98;;;16.20;;
7563;SDS011;3823;53.586;10.040;2024-03-08T06:34:18;34.38;;;16.33;;
7563;SDS011;3823;53.586;10.040;2024-03-08T06:36:44;32.15;;;16.85;;
7563;SDS011;3823;53.586;10.040;2024-03-08T06:39:09;38.85;;;16.88;;
7563;SDS011;3823;53.586;10.040;2024-03-08T06:41:36;36.78;;;17.58;;
7563;SDS011;3823;53.586;10.040;2024-03-08T06:44:02;38.50;;;17.75;;
7563;SDS011;3823;53.586;10.040;2024-03-08T06:46:28;40.13;;;15.50;;
7563;SDS011;3823;53.586;10.040;2024-03-08T06:48:53;33.53;;;16.58;;
7563;SDS011;3823;53.586;10.040;2024-03-08T06:51:19;36.42;;;17.23;;
7563;SDS011;3823;53.586;10.040;2024-03-08T06:53:45;33.97;;;15.38;;
7563;SDS011;3823;53.586;10.040;2024-03-08T06:56:10;29.45;;;14.95;;
7563;SDS011;3823;53.586;10.040;2024-03-08T06:58:36;37.38;;;18.30;;
7563;SDS011;3823;53.586;10.040;2024-03-08T07:01:02;24.73;;;15.60;;
7563;SDS011;3823;53.586;10.040;2024-03-08T07:03:32;34.63;;;17.33;;
7563;SDS011;3823;53.586;10.040;2024-03-08T07:05:58;31.48;;;15.98;;
7563;SDS011;3823;53.586;10.040;2024-03-08T07:08:23;34.47;;;16.10;;
7563;SDS011;3823;53.586;10.040;2024-03-08T07:10:49;31.80;;;15.35;;
7563;SDS011;3823;53.586;10.040;2024-03-08T07:13:15;30.48;;;16.80;;
7563;SDS011;3823;53.586;10.040;2024-03-08T07:15:41;35.08;;;16.95;;
7563;SDS011;3823;53.586;10.040;2024-03-08T07:18:08;31.17;;;14.40;;
7563;SDS011;3823;53.586;10.040;2024-03-08T07:20:34;28.83;;;16.60;;
7563;SDS011;3823;53.586;10.040;2024-03-08T07:23:02;28.17;;;16.20;;
7563;SDS011;3823;53.586;10.040;2024-03-08T07:25:28;30.00;;;16.65;;
7563;SDS011;3823;53.586;10.040;2024-03-08T07:27:54;28.90;;;17.00;;
7563;SDS011;3823;53.586;10.040;2024-03-08T07:30:21;32.70;;;18.10;;
7563;SDS011;3823;53.586;10.040;2024-03-08T07:33:06;30.10;;;15.48;;
7563;SDS011;3823;53.586;10.040;2024-03-08T07:35:32;26.15;;;14.90;;
7563;SDS011;3823;53.586;10.040;2024-03-08T07:38:07;31.42;;;16.02;;
7563;SDS011;3823;53.586;10.040;2024-03-08T07:40:37;26.55;;;14.75;;
7563;SDS011;3823;53.586;10.040;2024-03-08T07:43:06;32.38;;;15.10;;
7563;SDS011;3823;53.586;10.040;2024-03-08T07:45:32;27.42;;;16.10;;
7563;SDS011;3823;53.586;10.040;2024-03-08T07:47:58;28.38;;;16.55;;
7563;SDS011;3823;53.586;10.040;2024-03-08T07:50:24;29.40;;;15.20;;
7563;SDS011;3823;53.586;10.040;2024-03-08T07:52:49;29.88;;;16.45;;
7563;SDS011;3823;53.586;10.040;2024-03-08T07:55:15;29.70;;;14.55;;
7563;SDS011;3823;53.586;10.040;2024-03-08T07:57:41;26.42;;;15.10;;
7563;SDS011;3823;53.586;10.040;2024-03-08T08:00:07;27.40;;;16.52;;
7563;SDS011;3823;53.586;10.040;2024-03-08T08:02:34;31.20;;;17.08;;
7563;SDS011;3823;53.586;10.040;2024-03-08T08:05:00;33.90;;;16.27;;
7563;SDS011;3823;53.586;10.040;2024-03-08T08:07:26;33.58;;;16.73;;
7563;SDS011;3823;53.586;10.040;2024-03-08T08:09:52;30.02;;;17.38;;
7563;SDS011;3823;53.586;10.040;2024-03-08T08:12:18;33.85;;;17.27;;
7563;SDS011;3823;53.586;10.040;2024-03-08T08:14:44;29.83;;;16.77;;
7563;SDS011;3823;53.586;10.040;2024-03-08T08:17:09;39.95;;;18.38;;
7563;SDS011;3823;53.586;10.040;2024-03-08T08:19:35;35.17;;;17.20;;
7563;SDS011;3823;53.586;10.040;2024-03-08T08:22:01;36.72;;;17.95;;
7563;SDS011;3823;53.586;10.040;2024-03-08T08:24:29;32.47;;;17.13;;
7563;SDS011;3823;53.586;10.040;2024-03-08T08:26:55;31.88;;;18.45;;
7563;SDS011;3823;53.586;10.040;2024-03-08T08:29:20;31.60;;;17.00;;
7563;SDS011;3823;53.586;10.040;2024-03-08T08:31:47;26.75;;;16.38;;
7563;SDS011;3823;53.586;10.040;2024-03-08T08:34:14;27.75;;;15.10;;
7563;SDS011;3823;53.586;10.040;2024-03-08T08:36:41;30.95;;;17.15;;
7563;SDS011;3823;53.586;10.040;2024-03-08T08:39:07;31.23;;;17.75;;
7563;SDS011;3823;53.586;10.040;2024-03-08T08:41:38;29.55;;;16.10;;
7563;SDS011;3823;53.586;10.040;2024-03-08T08:44:04;36.78;;;15.73;;
7563;SDS011;3823;53.586;10.040;2024-03-08T08:46:34;24.13;;;15.18;;
7563;SDS011;3823;53.586;10.040;2024-03-08T08:49:03;27.40;;;16.65;;
7563;SDS011;3823;53.586;10.040;2024-03-08T08:51:29;29.42;;;16.65;;
7563;SDS011;3823;53.586;10.040;2024-03-08T08:53:56;33.05;;;16.70;;
7563;SDS011;3823;53.586;10.040;2024-03-08T08:56:21;32.38;;;17.50;;
7563;SDS011;3823;53.586;10.040;2024-03-08T08:58:47;27.90;;;15.65;;
7563;SDS011;3823;53.586;10.040;2024-03-08T09:01:14;31.83;;;18.17;;
7563;SDS011;3823;53.586;10.040;2024-03-08T09:03:40;32.30;;;16.13;;
7563;SDS011;3823;53.586;10.040;2024-03-08T09:06:06;27.77;;;17.85;;
7563;SDS011;3823;53.586;10.040;2024-03-08T09:08:35;27.40;;;16.63;;
7563;SDS011;3823;53.586;10.040;2024-03-08T09:11:01;30.35;;;17.05;;
7563;SDS011;3823;53.586;10.040;2024-03-08T09:13:27;31.42;;;17.75;;
7563;SDS011;3823;53.586;10.040;2024-03-08T09:15:53;28.67;;;16.92;;
7563;SDS011;3823;53.586;10.040;2024-03-08T09:18:18;27.15;;;16.10;;
7563;SDS011;3823;53.586;10.040;2024-03-08T09:20:44;26.63;;;15.95;;
7563;SDS011;3823;53.586;10.040;2024-03-08T09:23:10;29.75;;;16.90;;
7563;SDS011;3823;53.586;10.040;2024-03-08T09:25:36;31.30;;;16.83;;
7563;SDS011;3823;53.586;10.040;2024-03-08T09:28:02;30.25;;;16.88;;
7563;SDS011;3823;53.586;10.040;2024-03-08T09:30:30;28.38;;;16.75;;
7563;SDS011;3823;53.586;10.040;2024-03-08T09:32:56;29.35;;;17.48;;
7563;SDS011;3823;53.586;10.040;2024-03-08T09:35:21;29.73;;;16.92;;
7563;SDS011;3823;53.586;10.040;2024-03-08T09:37:47;30.13;;;17.58;;
7563;SDS011;3823;53.586;10.040;2024-03-08T09:40:16;31.30;;;16.05;;
7563;SDS011;3823;53.586;10.040;2024-03-08T09:42:44;28.48;;;16.40;;
7563;SDS011;3823;53.586;10.040;2024-03-08T09:45:11;29.05;;;16.25;;
7563;SDS011;3823;53.586;10.040;2024-03-08T09:47:38;28.15;;;16.05;;
7563;SDS011;3823;53.586;10.040;2024-03-08T09:50:06;28.45;;;15.35;;
7563;SDS011;3823;53.586;10.040;2024-03-08T09:52:40;24.27;;;15.35;;
7563;SDS011;3823;53.586;10.040;2024-03-08T09:55:09;23.60;;;14.32;;
7563;SDS011;3823;53.586;10.040;2024-03-08T09:57:39;31.95;;;16.70;;
7563;SDS011;3823;53.586;10.040;2024-03-08T10:00:05;26.65;;;14.98;;
7563;SDS011;3823;53.586;10.040;2024-03-08T10:02:48;29.00;;;15.85;;
7563;SDS011;3823;53.586;10.040;2024-03-08T10:05:17;27.70;;;15.48;;
7563;SDS011;3823;53.586;10.040;2024-03-08T10:07:43;29.90;;;15.45;;
7563;SDS011;3823;53.586;10.040;2024-03-08T10:10:09;30.27;;;16.95;;
7563;SDS011;3823;53.586;10.040;2024-03-08T10:12:37;28.25;;;16.50;;
7563;SDS011;3823;53.586;10.040;2024-03-08T10:15:05;26.35;;;15.43;;
7563;SDS011;3823;53.586;10.040;2024-03-08T10:17:33;26.15;;;16.27;;
7563;SDS011;3823;53.586;10.040;2024-03-08T10:19:59;29.90;;;16.73;;
7563;SDS011;3823;53.586;10.040;2024-03-08T10:22:26;27.95;;;16.52;;
7563;SDS011;3823;53.586;10.040;2024-03-08T10:24:51;31.00;;;16.77;;
7563;SDS011;3823;53.586;10.040;2024-03-08T10:27:17;21.92;;;14.65;;
7563;SDS011;3823;53.586;10.040;2024-03-08T10:29:46;31.65;;;17.23;;
7563;SDS011;3823;53.586;10.040;2024-03-08T10:32:12;26.67;;;15.70;;
7563;SDS011;3823;53.586;10.040;2024-03-08T10:34:38;26.27;;;15.82;;
7563;SDS011;3823;53.586;10.040;2024-03-08T10:37:04;23.55;;;14.65;;
7563;SDS011;3823;53.586;10.040;2024-03-08T10:39:35;28.50;;;14.55;;
7563;SDS011;3823;53.586;10.040;2024-03-08T10:42:02;23.60;;;15.95;;
7563;SDS011;3823;53.586;10.040;2024-03-08T10:49:54;23.48;;;14.88;;
7563;SDS011;3823;53.586;10.040;2024-03-08T10:52:29;24.50;;;14.57;;
7563;SDS011;3823;53.586;10.040;2024-03-08T10:54:54;22.42;;;14.57;;
7563;SDS011;3823;53.586;10.040;2024-03-08T10:57:22;25.63;;;15.75;;
7563;SDS011;3823;53.586;10.040;2024-03-08T10:59:49;22.65;;;14.38;;
7563;SDS011;3823;53.586;10.040;2024-03-08T11:02:16;23.13;;;13.18;;
7563;SDS011;3823;53.586;10.040;2024-03-08T11:04:46;22.38;;;13.98;;
7563;SDS011;3823;53.586;10.040;2024-03-08T11:07:14;21.33;;;13.18;;
7563;SDS011;3823;53.586;10.040;2024-03-08T11:09:42;25.20;;;12.73;;
7563;SDS011;3823;53.586;10.040;2024-03-08T11:12:26;24.00;;;13.93;;
7563;SDS011;3823;53.586;10.040;2024-03-08T11:14:54;28.55;;;15.60;;
7563;SDS011;3823;53.586;10.040;2024-03-08T11:17:47;21.65;;;13.25;;
7563;SDS011;3823;53.586;10.040;2024-03-08T11:20:18;27.70;;;14.18;;
7563;SDS011;3823;53.586;10.040;2024-03-08T11:22:48;25.25;;;14.95;;
7563;SDS011;3823;53.586;10.040;2024-03-08T11:25:36;28.50;;;13.85;;
7563;SDS011;3823;53.586;10.040;2024-03-08T11:30:43;23.25;;;12.45;;
7563;SDS011;3823;53.586;10.040;2024-03-08T11:33:28;22.85;;;12.52;;
7563;SDS011;3823;53.586;10.040;2024-03-08T11:36:07;21.45;;;13.20;;
7563;SDS011;3823;53.586;10.040;2024-03-08T11:38:44;19.23;;;12.10;;
7563;SDS011;3823;53.586;10.040;2024-03-08T11:41:14;21.40;;;12.00;;
7563;SDS011;3823;53.586;10.040;2024-03-08T11:43:45;21.45;;;13.52;;
7563;SDS011;3823;53.586;10.040;2024-03-08T11:46:11;18.73;;;12.45;;
7563;SDS011;3823;53.586;10.040;2024-03-08T11:48:41;18.23;;;12.10;;
7563;SDS011;3823;53.586;10.040;2024-03-08T11:51:08;19.50;;;11.88;;
7563;SDS011;3823;53.586;10.040;2024-03-08T11:53:34;19.65;;;13.13;;
7563;SDS011;3823;53.586;10.040;2024-03-08T11:56:08;22.73;;;13.65;;
7563;SDS011;3823;53.586;10.040;2024-03-08T11:58:34;18.88;;;12.02;;
7563;SDS011;3823;53.586;10.040;2024-03-08T12:01:07;20.98;;;12.48;;
7563;SDS011;3823;53.586;10.040;2024-03-08T12:03:42;20.35;;;12.88;;
7563;SDS011;3823;53.586;10.040;2024-03-08T12:06:08;19.50;;;12.55;;
7563;SDS011;3823;53.586;10.040;2024-03-08T12:08:37;23.73;;;13.75;;
7563;SDS011;3823;53.586;10.040;2024-03-08T12:11:03;20.08;;;12.55;;
7563;SDS011;3823;53.586;10.040;2024-03-08T12:13:33;20.40;;;12.20;;
7563;SDS011;3823;53.586;10.040;2024-03-08T12:16:00;23.80;;;12.85;;
7563;SDS011;3823;53.586;10.040;2024-03-08T12:18:32;20.50;;;12.30;;
7563;SDS011;3823;53.586;10.040;2024-03-08T12:21:06;21.55;;;13.48;;
7563;SDS011;3823;53.586;10.040;2024-03-08T12:23:33;21.55;;;13.32;;
7563;SDS011;3823;53.586;10.040;2024-03-08T12:28:48;17.02;;;12.05;;
7563;SDS011;3823;53.586;10.040;2024-03-08T12:31:14;19.08;;;12.15;;
7563;SDS011;3823;53.586;10.040;2024-03-08T12:33:50;20.83;;;12.75;;
7563;SDS011;3823;53.586;10.040;2024-03-08T12:36:18;21.42;;;12.60;;
7563;SDS011;3823;53.586;10.040;2024-03-08T12:38:45;21.65;;;13.95;;
7563;SDS011;3823;53.586;10.040;2024-03-08T12:41:13;19.42;;;12.18;;
7563;SDS011;3823;53.586;10.040;2024-03-08T12:43:43;23.10;;;12.25;;
7563;SDS011;3823;53.586;10.040;2024-03-08T12:46:15;20.95;;;12.57;;
7563;SDS011;3823;53.586;10.040;2024-03-08T12:48:51;16.75;;;11.45;;
7563;SDS011;3823;53.586;10.040;2024-03-08T12:51:18;18.15;;;11.93;;
7563;SDS011;3823;53.586;10.040;2024-03-08T12:53:45;15.73;;;10.48;;
7563;SDS011;3823;53.586;10.040;2024-03-08T12:56:12;20.73;;;12.05;;
7563;SDS011;3823;53.586;10.040;2024-03-08T12:58:38;27.83;;;13.50;;
7563;SDS011;3823;53.586;10.040;2024-03-08T13:01:04;22.52;;;11.15;;
7563;SDS011;3823;53.586;10.040;2024-03-08T13:03:32;20.50;;;11.85;;
7563;SDS011;3823;53.586;10.040;2024-03-08T13:06:04;22.42;;;12.25;;
7563;SDS011;3823;53.586;10.040;2024-03-08T13:08:36;25.13;;;12.70;;
7563;SDS011;3823;53.586;10.040;2024-03-08T13:11:05;19.98;;;11.60;;
7563;SDS011;3823;53.586;10.040;2024-03-08T13:13:36;18.67;;;11.93;;
7563;SDS011;3823;53.586;10.040;2024-03-08T13:16:03;20.05;;;12.02;;
7563;SDS011;3823;53.586;10.040;2024-03-08T13:18:33;20.80;;;13.10;;
7563;SDS011;3823;53.586;10.040;2024-03-08T13:20:58;17.63;;;11.45;;
7563;SDS011;3823;53.586;10.040;2024-03-08T13:23:24;21.08;;;12.68;;
7563;SDS011;3823;53.586;10.040;2024-03-08T13:25:49;18.88;;;11.32;;
7563;SDS011;3823;53.586;10.040;2024-03-08T13:28:15;17.83;;;11.20;;
7563;SDS011;3823;53.586;10.040;2024-03-08T13:30:42;18.27;;;11.20;;
7563;SDS011;3823;53.586;10.040;2024-03-08T13:33:09;17.70;;;10.98;;
7563;SDS011;3823;53.586;10.040;2024-03-08T13:35:34;18.98;;;10.90;;
7563;SDS011;3823;53.586;10.040;2024-03-08T13:38:00;23.70;;;10.93;;
7563;SDS011;3823;53.586;10.040;2024-03-08T13:40:30;21.52;;;11.80;;
7563;SDS011;3823;53.586;10.040;2024-03-08T13:42:56;18.42;;;10.90;;
7563;SDS011;3823;53.586;10.040;2024-03-08T13:45:21;23.63;;;11.70;;
7563;SDS011;3823;53.586;10.040;2024-03-08T13:47:50;18.35;;;12.25;;
7563;SDS011;3823;53.586;10.040;2024-03-08T13:50:18;18.33;;;11.93;;
7563;SDS011;3823;53.586;10.040;2024-03-08T13:52:46;22.20;;;13.27;;
7563;SDS011;3823;53.586;10.040;2024-03-08T13:55:16;19.90;;;12.63;;
7563;SDS011;3823;53.586;10.040;2024-03-08T13:57:42;16.95;;;10.98;;
7563;SDS011;3823;53.586;10.040;2024-03-08T14:00:10;23.88;;;13.13;;
7563;SDS011;3823;53.586;10.040;2024-03-08T14:02:36;20.73;;;12.05;;
7563;SDS011;3823;53.586;10.040;2024-03-08T14:05:02;18.25;;;11.00;;
7563;SDS011;3823;53.586;10.040;2024-03-08T14:07:28;20.60;;;12.73;;
7563;SDS011;3823;53.586;10.040;2024-03-08T14:09:58;20.85;;;11.68;;
7563;SDS011;3823;53.586;10.040;2024-03-08T14:12:24;20.10;;;12.18;;
7563;SDS011;3823;53.586;10.040;2024-03-08T14:14:51;18.33;;;11.45;;
7563;SDS011;3823;53.586;10.040;2024-03-08T14:17:20;20.48;;;11.35;;
7563;SDS011;3823;53.586;10.040;2024-03-08T14:19:46;21.65;;;11.40;;
7563;SDS011;3823;53.586;10.040;2024-03-08T14:22:11;20.35;;;11.07;;
7563;SDS011;3823;53.586;10.040;2024-03-08T14:24:40;20.05;;;11.93;;
7563;SDS011;3823;53.586;10.040;2024-03-08T14:27:07;20.38;;;11.40;;
7563;SDS011;3823;53.586;10.040;2024-03-08T14:29:34;19.58;;;11.68;;
7563;SDS011;3823;53.586;10.040;2024-03-08T14:32:00;18.17;;;12.07;;
7563;SDS011;3823;53.586;10.040;2024-03-08T14:34:28;18.27;;;12.60;;
7563;SDS011;3823;53.586;10.040;2024-03-08T14:36:55;21.85;;;13.52;;
7563;SDS011;3823;53.586;10.040;2024-03-08T14:39:21;23.20;;;12.23;;
7563;SDS011;3823;53.586;10.040;2024-03-08T14:41:51;19.27;;;13.15;;
7563;SDS011;3823;53.586;10.040;2024-03-08T14:44:21;20.13;;;12.25;;